Terminal Aerodrome Forecast
Issued by NWS

Home | Current Version | Previous Version | Text Only | Print | Product List | Glossary On
Versions: 1 2 3 4 5 6 7 8 9 10 11 12 13 14 15 16
446
FTUS43 KMQT 112338
TAFIWD
TAF
KIWD 112338Z 1200/1224 34015G25KT 5SM -SHSN BLSN OVC025
     FM120300 34015G25KT 5SM -SHSN BLSN OVC020
     FM121000 33013G22KT 3SM -SHSN BKN020
     FM121200 33012G20KT 3SM -SHSN BKN015
     FM121600 33012G19KT 5SM -SHSN BKN020
     FM121800 33011G18KT P6SM BKN025
     FM122200 33008KT P6SM BKN035=

USA.gov is the U.S. government's official web portal to all federal, state and local government web resources and services.